Time;durP1;ratioP1;P1;durP2;ratioP2;P2;SDS_P1;SDS_P2;PMS_P1;PMS_P2;Temp;Humidity;BMP_temperature;BMP_pressure;BME280_temperature;BME280_humidity;BME280_pressure;Samples;Min_cycle;Max_cycle;Signal;HPM_P1;HPM_P2
2021/03/24 00:01:14;;;;;;;7.93;2.50;;;;;;;10.64;81.61;100240.16;4990280;28;20046;-68
2021/03/24 00:03:40;;;;;;;11.93;2.50;;;;;;;10.59;81.90;100233.09;4989426;28;20538;-68
2021/03/24 00:06:08;;;;;;;12.38;2.58;;;;;;;10.59;81.98;100241.00;4990338;28;20133;-68
2021/03/24 00:08:35;;;;;;;8.65;2.67;;;;;;;10.64;82.23;100237.53;4989544;28;20084;-68
2021/03/24 00:11:02;;;;;;;8.60;2.28;;;;;;;10.72;82.22;100238.47;4990464;28;20050;-68
2021/03/24 00:13:29;;;;;;;16.73;3.55;;;;;;;10.68;82.16;100241.06;4989441;28;20046;-68
2021/03/24 00:15:56;;;;;;;8.77;2.70;;;;;;;10.41;81.86;100233.84;4989949;28;20043;-68
2021/03/24 00:18:25;;;;;;;6.90;3.13;;;;;;;10.16;82.02;100245.94;4990456;28;20043;-68
2021/03/24 00:20:53;;;;;;;8.70;3.95;;;;;;;10.06;82.43;100249.34;4989824;28;20069;-68
2021/03/24 00:23:20;;;;;;;12.43;3.55;;;;;;;10.04;82.88;100244.94;4989685;28;20049;-68
2021/03/24 00:25:47;;;;;;;8.60;3.03;;;;;;;10.16;82.78;100248.56;4989577;28;20407;-68
2021/03/24 00:28:16;;;;;;;10.23;2.88;;;;;;;10.26;82.99;100229.31;4991503;28;20405;-68
2021/03/24 00:30:45;;;;;;;11.68;3.22;;;;;;;10.38;82.38;100241.72;4993701;28;20050;-68
2021/03/24 00:33:14;;;;;;;13.25;3.25;;;;;;;10.43;82.12;100245.31;4993712;28;20041;-68
2021/03/24 00:35:42;;;;;;;11.68;2.97;;;;;;;10.41;81.69;100256.69;4992837;28;20509;-68
2021/03/24 00:38:11;;;;;;;10.73;3.70;;;;;;;10.39;81.32;100276.03;4993782;28;20176;-68
2021/03/24 00:40:41;;;;;;;11.32;4.60;;;;;;;10.34;81.52;100277.75;4993713;28;20145;-70
2021/03/24 00:43:10;;;;;;;9.65;3.25;;;;;;;9.86;82.32;100266.72;4993231;28;20042;-68
2021/03/24 00:45:38;;;;;;;19.88;4.60;;;;;;;9.80;83.56;100258.72;4993417;28;20064;-68
2021/03/24 00:48:08;;;;;;;14.88;4.50;;;;;;;9.92;84.37;100262.38;4993435;28;20039;-68
2021/03/24 00:50:36;;;;;;;12.88;4.57;;;;;;;10.07;84.42;100264.28;4993164;28;20137;-68
2021/03/24 00:53:05;;;;;;;15.05;5.70;;;;;;;10.18;84.40;100267.94;4993492;28;20562;-68
2021/03/24 00:55:32;;;;;;;22.30;7.05;;;;;;;10.22;84.35;100277.66;4992723;28;20046;-68
2021/03/24 00:57:59;;;;;;;23.48;7.35;;;;;;;10.26;84.28;100268.88;4993263;28;20054;-68
2021/03/24 01:00:28;;;;;;;12.80;5.45;;;;;;;10.31;84.11;100272.44;4993606;28;20048;-68
2021/03/24 01:02:56;;;;;;;12.05;5.50;;;;;;;10.34;83.83;100277.75;4992479;28;20057;-68
2021/03/24 01:05:24;;;;;;;14.65;5.88;;;;;;;10.33;83.46;100262.81;4993473;28;20043;-68
2021/03/24 01:07:52;;;;;;;15.68;5.05;;;;;;;10.29;82.65;100268.94;4993296;28;20507;-68
2021/03/24 01:10:23;;;;;;;11.60;5.53;;;;;;;10.31;82.34;100266.28;4993384;28;20053;-68
2021/03/24 01:12:50;;;;;;;20.70;6.95;;;;;;;10.28;82.06;100275.06;4992662;28;20057;-68
2021/03/24 01:15:17;;;;;;;17.63;6.22;;;;;;;10.28;82.00;100267.16;4993496;28;20035;-68
2021/03/24 01:17:45;;;;;;;15.70;4.75;;;;;;;10.28;81.74;100274.19;4992711;28;20526;-68
2021/03/24 01:20:13;;;;;;;16.83;5.15;;;;;;;10.28;81.34;100277.72;4993238;28;20130;-68
2021/03/24 01:22:41;;;;;;;12.82;6.63;;;;;;;10.29;81.33;100297.94;4992633;28;20054;-68
2021/03/24 01:25:09;;;;;;;17.08;6.20;;;;;;;10.27;81.15;100270.66;4992843;28;20051;-68
2021/03/24 01:27:38;;;;;;;11.48;5.03;;;;;;;10.27;81.21;100297.03;4992415;28;20122;-68
2021/03/24 01:30:07;;;;;;;15.77;6.72;;;;;;;10.28;81.02;100301.44;4993227;28;20050;-68
2021/03/24 01:32:34;;;;;;;11.77;5.13;;;;;;;10.27;81.09;100286.50;4992025;28;20056;-68
2021/03/24 01:35:01;;;;;;;15.43;5.03;;;;;;;10.28;81.08;100284.75;4992561;28;20038;-68
2021/03/24 01:37:27;;;;;;;14.07;5.13;;;;;;;10.30;80.88;100299.72;4992769;28;20104;-68
2021/03/24 01:39:54;;;;;;;19.30;5.82;;;;;;;10.32;80.74;100297.97;4991701;28;20038;-68
2021/03/24 01:42:21;;;;;;;16.55;6.18;;;;;;;10.33;80.50;100306.75;4992533;28;20044;-68
2021/03/24 01:45:10;;;;;;;13.38;4.07;;;;;;;10.34;80.31;100300.63;4992438;28;20137;-68
2021/03/24 01:47:37;;;;;;;15.88;5.20;;;;;;;10.26;80.13;100307.56;4992544;28;20034;-68
2021/03/24 01:50:11;;;;;;;17.30;5.32;;;;;;;10.28;79.92;100319.91;4992752;28;20046;-68
2021/03/24 01:52:39;;;;;;;19.42;7.00;;;;;;;10.25;79.46;100317.22;4991797;28;20038;-68
2021/03/24 01:55:06;;;;;;;16.35;4.70;;;;;;;10.25;78.91;100309.31;4991999;28;20046;-68
2021/03/24 01:57:33;;;;;;;14.43;4.28;;;;;;;10.28;78.98;100314.66;4992330;28;20046;-68
2021/03/24 02:00:01;;;;;;;14.45;5.18;;;;;;;10.26;79.09;100321.66;4992494;28;20406;-68
2021/03/24 02:02:32;;;;;;;14.20;5.03;;;;;;;10.26;78.75;100321.66;4992141;28;20129;-67
2021/03/24 02:05:00;;;;;;;12.27;5.45;;;;;;;10.25;78.12;100314.59;4992110;28;20053;-68
2021/03/24 02:07:33;;;;;;;12.00;4.93;;;;;;;10.30;77.58;100333.13;4992523;28;20048;-69
2021/03/24 02:10:06;;;;;;;15.00;5.38;;;;;;;10.32;77.89;100334.91;4991952;28;20042;-68
2021/03/24 02:12:39;;;;;;;16.50;5.45;;;;;;;10.33;77.70;100326.13;4991618;28;20117;-68
2021/03/24 02:15:10;;;;;;;16.83;5.57;;;;;;;10.33;77.39;100346.34;4992545;28;20065;-68
2021/03/24 02:17:42;;;;;;;17.45;5.55;;;;;;;10.35;77.40;100342.84;4992134;28;20046;-68
2021/03/24 02:20:15;;;;;;;15.20;5.05;;;;;;;10.36;77.05;100349.00;4991749;28;20101;-68
2021/03/24 02:22:45;;;;;;;13.35;5.40;;;;;;;10.38;77.01;100358.69;4991467;28;20050;-68
2021/03/24 02:25:21;;;;;;;13.93;5.22;;;;;;;10.38;77.03;100357.81;4991958;28;20092;-67
2021/03/24 02:27:54;;;;;;;18.40;5.60;;;;;;;10.33;76.90;100349.84;4991564;28;20538;-67
2021/03/24 02:30:25;;;;;;;14.07;4.88;;;;;;;10.32;76.61;100363.03;4991360;28;20046;-67
2021/03/24 02:32:56;;;;;;;17.48;6.47;;;;;;;10.33;76.46;100367.44;4991527;28;20050;-68
2021/03/24 02:35:27;;;;;;;17.98;5.70;;;;;;;10.28;75.96;100366.50;4992120;28;20125;-68
2021/03/24 02:37:56;;;;;;;16.77;5.90;;;;;;;10.27;76.06;100368.25;4991349;28;20043;-68
2021/03/24 02:40:24;;;;;;;21.58;6.65;;;;;;;10.26;75.42;100371.75;4991649;28;20042;-67
2021/03/24 02:42:54;;;;;;;18.48;5.40;;;;;;;10.31;75.22;100355.97;4990648;28;20050;-67
2021/03/24 02:45:24;;;;;;;13.23;5.25;;;;;;;10.30;75.02;100360.41;4990578;28;20060;-67
2021/03/24 02:47:53;;;;;;;13.80;5.50;;;;;;;10.32;75.09;100374.47;4991232;28;20525;-67
2021/03/24 02:50:21;;;;;;;18.98;7.03;;;;;;;10.38;75.31;100366.59;4990991;28;20108;-68
2021/03/24 02:52:49;;;;;;;14.57;4.88;;;;;;;10.35;74.93;100387.69;4989720;28;20031;-68
2021/03/24 02:55:17;;;;;;;18.00;5.53;;;;;;;10.36;74.61;100392.13;4991541;28;20035;-68
2021/03/24 02:57:44;;;;;;;13.80;5.68;;;;;;;10.35;74.53;100400.91;4991185;28;20045;-68
2021/03/24 03:00:17;;;;;;;9.93;4.97;;;;;;;10.36;74.42;100396.50;4991317;28;20125;-67
2021/03/24 03:02:48;;;;;;;10.65;4.97;;;;;;;10.32;73.84;100410.50;4989770;28;20430;-68
2021/03/24 03:05:19;;;;;;;11.20;4.90;;;;;;;10.29;73.34;100397.31;4991267;28;20133;-67
2021/03/24 03:07:57;;;;;;;15.93;5.03;;;;;;;10.29;73.15;100411.38;4990794;28;20494;-67
2021/03/24 03:10:31;;;;;;;13.32;5.18;;;;;;;10.32;72.91;100421.06;4990893;28;20045;-67
2021/03/24 03:13:03;;;;;;;11.27;4.47;;;;;;;10.28;72.66;100420.16;4990598;28;20491;-67
2021/03/24 03:15:37;;;;;;;10.90;5.20;;;;;;;10.29;72.07;100421.06;4971853;28;20046;-67
2021/03/24 03:18:06;;;;;;;;;;;;;;;10.32;71.60;100435.16;4971779;28;20096;-68
2021/03/24 03:20:36;;;;;;;14.30;5.00;;;;;;;10.29;72.32;100445.69;4989016;28;19922;-68
2021/03/24 03:23:10;;;;;;;13.10;4.40;;;;;;;10.23;72.32;100448.25;4990760;28;20100;-67
2021/03/24 03:25:40;;;;;;;12.90;4.40;;;;;;;10.14;72.15;100429.63;4990801;28;20107;-68
2021/03/24 03:28:10;;;;;;;14.40;4.97;;;;;;;10.09;71.03;100438.34;4990685;28;20042;-68
2021/03/24 03:30:41;;;;;;;10.55;4.13;;;;;;;10.03;69.29;100454.09;4990443;28;20122;-67
2021/03/24 03:33:12;;;;;;;11.98;4.50;;;;;;;10.03;68.07;100459.38;4990802;28;20122;-67
2021/03/24 03:35:41;;;;;;;13.60;4.65;;;;;;;10.03;67.73;100455.00;4989909;28;20042;-68
2021/03/24 03:38:14;;;;;;;11.15;3.95;;;;;;;10.01;68.04;100456.72;4990879;28;20046;-67
2021/03/24 03:40:43;;;;;;;10.50;4.68;;;;;;;10.03;68.29;100449.72;4990048;28;20038;-67
2021/03/24 03:43:14;;;;;;;11.00;5.10;;;;;;;10.05;68.05;100455.88;4990306;28;20129;-68
2021/03/24 03:45:44;;;;;;;8.98;4.47;;;;;;;10.05;67.10;100462.91;4971092;28;20053;-67
2021/03/24 03:48:13;;;;;;;10.15;3.55;;;;;;;10.09;66.99;100460.34;4971589;28;20470;-67
2021/03/24 03:50:42;;;;;;;14.15;6.50;;;;;;;10.14;67.48;100463.03;4972244;28;20051;-68
2021/03/24 03:53:17;;;;;;;13.55;4.65;;;;;;;10.23;67.28;100463.19;4990602;28;20046;-67
2021/03/24 03:55:48;;;;;;;13.43;4.40;;;;;;;10.28;67.62;100465.00;4989851;28;20574;-67
2021/03/24 03:58:26;;;;;;;10.68;4.45;;;;;;;10.32;67.60;100461.53;4990757;28;20137;-67
2021/03/24 04:01:02;;;;;;;14.30;4.43;;;;;;;10.36;67.02;100462.47;4989928;28;20104;-67
2021/03/24 04:03:35;;;;;;;14.35;3.50;;;;;;;10.37;66.83;100467.72;4993377;28;20049;-67
2021/03/24 04:06:08;;;;;;;13.50;4.47;;;;;;;10.44;66.95;100488.91;4994526;28;20503;-67
2021/03/24 04:08:36;;;;;;;11.45;4.07;;;;;;;10.41;67.04;100495.06;4994175;28;20048;-67
2021/03/24 04:11:07;;;;;;;15.27;4.47;;;;;;;10.39;66.40;100500.31;4994454;28;20050;-67
2021/03/24 04:13:36;;;;;;;10.77;4.22;;;;;;;10.41;66.27;100489.78;4994047;28;20045;-68
2021/03/24 04:16:06;;;;;;;5.63;3.35;;;;;;;10.42;65.41;100494.19;4994059;28;20105;-68
2021/03/24 04:18:36;;;;;;;6.45;2.78;;;;;;;10.44;65.72;100486.25;4993897;28;20100;-67
2021/03/24 04:21:05;;;;;;;12.35;3.60;;;;;;;10.45;65.71;100496.84;4993971;28;20038;-67
2021/03/24 04:23:37;;;;;;;14.93;3.70;;;;;;;10.48;65.74;100502.19;4993238;28;20100;-68
2021/03/24 04:26:10;;;;;;;13.90;3.15;;;;;;;10.55;65.60;100500.50;4994416;28;20503;-67
2021/03/24 04:28:44;;;;;;;10.93;3.78;;;;;;;10.52;64.98;100497.81;4974683;28;20054;-67
2021/03/24 04:31:15;;;;;;;9.05;4.00;;;;;;;10.54;65.25;100511.91;4989303;28;20513;-67
2021/03/24 04:33:42;;;;;;;8.13;3.35;;;;;;;10.49;65.11;100509.22;4993411;28;20042;-67
2021/03/24 04:36:16;;;;;;;9.70;3.97;;;;;;;10.50;64.88;100510.13;4992520;28;20050;-67
2021/03/24 04:38:47;;;;;;;15.02;3.78;;;;;;;10.51;64.57;100518.03;4993272;28;20495;-67
2021/03/24 04:41:20;;;;;;;12.80;4.00;;;;;;;10.54;65.21;100527.75;4993994;28;20430;-67
2021/03/24 04:43:52;;;;;;;10.38;3.90;;;;;;;10.57;65.06;100525.13;4993505;28;20046;-67
2021/03/24 04:46:22;;;;;;;9.10;3.38;;;;;;;10.58;64.63;100535.72;4994180;28;20045;-67
2021/03/24 04:48:55;;;;;;;14.85;3.60;;;;;;;10.58;64.25;100513.72;4992619;28;20677;-67
2021/03/24 04:51:25;;;;;;;10.68;3.65;;;;;;;10.60;63.34;100523.44;4993438;28;20042;-67
2021/03/24 04:53:55;;;;;;;11.38;4.72;;;;;;;10.60;63.62;100522.53;4993093;28;20054;-67
2021/03/24 04:56:23;;;;;;;9.15;2.92;;;;;;;10.58;63.83;100533.06;4992787;28;20536;-67
2021/03/24 04:58:54;;;;;;;12.65;3.10;;;;;;;10.57;64.08;100539.22;4992982;28;20046;-67
2021/03/24 05:01:27;;;;;;;10.00;3.58;;;;;;;10.57;63.91;100535.69;4993201;28;20479;-67
2021/03/24 05:03:57;;;;;;;8.57;3.28;;;;;;;10.59;63.33;100547.16;4993463;28;20155;-67
2021/03/24 05:06:29;;;;;;;11.55;3.58;;;;;;;10.63;62.91;100556.91;4993340;28;20466;-67
2021/03/24 05:08:57;;;;;;;7.03;2.97;;;;;;;10.62;62.76;100552.50;4992474;28;20038;-68
2021/03/24 05:11:30;;;;;;;13.43;3.92;;;;;;;10.66;62.29;100555.16;4993236;28;20042;-67
2021/03/24 05:14:13;;;;;;;9.77;4.10;;;;;;;10.70;61.99;100564.88;4990702;28;20042;-67
2021/03/24 05:16:45;;;;;;;10.50;3.20;;;;;;;10.71;62.66;100564.03;4992843;28;20046;-67
2021/03/24 05:19:21;;;;;;;7.00;2.95;;;;;;;10.76;61.38;100572.03;4993072;28;20038;-67
2021/03/24 05:22:07;;;;;;;6.97;2.40;;;;;;;10.78;60.10;100573.78;4993091;28;20038;-67
2021/03/24 05:24:37;;;;;;;10.10;2.92;;;;;;;10.80;59.95;100565.88;4992396;28;20694;-67
2021/03/24 05:27:12;;;;;;;7.70;2.40;;;;;;;10.86;58.93;100562.44;4992533;28;20046;-67
2021/03/24 05:29:42;;;;;;;9.77;3.22;;;;;;;10.91;58.57;100569.53;4992857;28;20129;-68
2021/03/24 05:32:16;;;;;;;10.65;3.35;;;;;;;10.95;58.79;100567.81;4993416;28;20039;-67
2021/03/24 05:34:45;;;;;;;5.53;2.40;;;;;;;10.97;58.47;100566.94;4992202;28;20498;-68
2021/03/24 05:37:12;;;;;;;12.48;3.60;;;;;;;11.05;58.33;100580.25;4992667;28;20042;-67
2021/03/24 05:39:41;;;;;;;9.40;2.35;;;;;;;11.21;57.89;100576.91;4992370;28;20034;-67
2021/03/24 05:42:27;;;;;;;6.45;2.45;;;;;;;11.42;58.30;100573.59;4992451;28;20043;-67
2021/03/24 05:45:39;;;;;;;8.60;2.42;;;;;;;11.32;58.68;100575.25;4992200;28;20129;-67
2021/03/24 05:48:29;;;;;;;10.50;2.67;;;;;;;11.50;58.90;100571.88;4968364;28;20054;-67
2021/03/24 05:51:13;;;;;;;7.50;3.00;;;;;;;11.81;59.14;100583.63;4992009;28;20065;-67
2021/03/24 05:54:01;;;;;;;9.70;2.73;;;;;;;12.01;59.38;100578.50;4992120;28;20038;-68
2021/03/24 05:56:40;;;;;;;6.50;2.40;;;;;;;12.31;59.24;100589.25;4992381;28;20126;-68
2021/03/24 05:59:19;;;;;;;6.63;2.60;;;;;;;12.57;57.96;100579.69;4991951;28;20053;-68
2021/03/24 06:01:48;;;;;;;7.97;3.03;;;;;;;12.52;57.45;100573.47;4992476;28;20185;-68
2021/03/24 06:04:26;;;;;;;6.43;2.30;;;;;;;12.41;56.21;100569.88;4991893;28;20043;-68
2021/03/24 06:07:32;;;;;;;8.35;1.92;;;;;;;12.56;55.88;100577.00;4990789;28;20537;-66
2021/03/24 06:10:47;;;;;;;10.55;2.47;;;;;;;12.69;55.32;100579.72;4990338;28;20042;-66
2021/03/24 06:13:56;;;;;;;6.30;2.50;;;;;;;12.68;54.50;100590.31;4950845;28;20098;-68
2021/03/24 06:16:45;;;;;;;7.53;3.05;;;;;;;12.98;54.39;100595.72;4921971;28;20440;-66
2021/03/24 06:19:22;;;;;;;7.32;2.30;;;;;;;13.06;54.14;100601.91;4969360;28;20039;-66
2021/03/24 06:22:03;;;;;;;4.68;2.05;;;;;;;12.89;54.69;100610.69;4991764;28;20113;-68
2021/03/24 06:25:02;;;;;;;7.40;2.72;;;;;;;12.79;54.73;100615.09;4991101;28;20038;-68
2021/03/24 06:27:40;;;;;;;6.53;2.47;;;;;;;12.99;54.47;100604.56;4972431;28;20035;-66
2021/03/24 06:30:24;;;;;;;6.30;2.50;;;;;;;12.90;53.86;100612.47;4976072;28;20042;-66
2021/03/24 06:33:16;;;;;;;6.43;2.95;;;;;;;12.95;54.13;100616.91;4990809;28;20129;-66
2021/03/24 06:36:11;;;;;;;6.70;3.40;;;;;;;12.90;53.95;100623.97;4976804;28;20454;-66
2021/03/24 06:39:00;;;;;;;6.82;2.38;;;;;;;13.25;53.56;100623.22;4982165;28;20035;-69
2021/03/24 06:41:45;;;;;;;7.05;1.80;;;;;;;13.06;53.52;100630.22;4991685;28;20499;-68
2021/03/24 06:44:26;;;;;;;7.03;2.30;;;;;;;13.12;52.93;100627.56;4991034;28;20085;-68
2021/03/24 06:46:59;;;;;;;7.80;2.55;;;;;;;13.31;51.73;100629.44;4990311;28;20732;-66
2021/03/24 06:49:39;;;;;;;7.10;2.25;;;;;;;13.42;52.40;100638.28;4988273;28;20104;-68
2021/03/24 06:52:42;;;;;;;8.02;2.40;;;;;;;13.90;51.14;100642.75;4990905;28;20538;-68
2021/03/24 06:55:54;;;;;;;4.75;2.20;;;;;;;14.04;51.71;100657.78;4990826;28;20034;-68
2021/03/24 06:58:56;;;;;;;6.47;1.95;;;;;;;13.83;51.20;100648.06;4991143;28;20042;-68
2021/03/24 07:01:48;;;;;;;5.35;2.00;;;;;;;13.50;51.06;100648.91;4980843;28;20384;-68
2021/03/24 07:04:57;;;;;;;9.02;1.85;;;;;;;13.35;51.62;100657.69;4990883;28;20038;-68
2021/03/24 07:08:07;;;;;;;9.35;2.72;;;;;;;13.59;52.25;100656.84;4991090;28;20049;-69
2021/03/24 07:10:44;;;;;;;7.70;2.30;;;;;;;13.52;51.72;100648.00;4990095;28;20031;-67
2021/03/24 07:13:53;;;;;;;7.28;2.45;;;;;;;13.35;51.90;100665.66;5003255;28;20031;-66
2021/03/24 07:16:33;;;;;;;4.65;2.03;;;;;;;13.08;52.94;100666.41;4917878;28;20042;-66
2021/03/24 07:19:15;;;;;;;6.05;2.15;;;;;;;13.52;53.63;100658.59;4989144;28;20049;-66
2021/03/24 07:22:19;;;;;;;7.40;2.63;;;;;;;14.10;52.75;100663.09;4989943;28;20034;-69
2021/03/24 07:25:27;;;;;;;9.18;2.58;;;;;;;14.08;52.71;100670.16;4990433;28;20042;-67
2021/03/24 07:28:44;;;;;;;7.32;2.20;;;;;;;13.79;51.91;100673.69;4990383;28;20069;-66
2021/03/24 07:31:28;;;;;;;6.15;2.35;;;;;;;14.30;52.21;100666.63;4911496;29;20044;-68
2021/03/24 07:34:04;;;;;;;5.20;1.95;;;;;;;14.27;51.37;100670.16;4984454;28;20046;-68
2021/03/24 07:37:09;;;;;;;7.28;2.00;;;;;;;14.94;51.15;100678.00;4990149;28;20027;-66
2021/03/24 07:40:08;;;;;;;5.55;1.83;;;;;;;15.04;51.11;100676.19;4987049;28;20038;-66
2021/03/24 07:42:54;;;;;;;6.10;1.98;;;;;;;15.58;50.92;100683.03;4979879;28;20045;-69
2021/03/24 07:45:38;;;;;;;5.63;1.40;;;;;;;15.99;49.99;100680.09;4988555;28;20042;-68
2021/03/24 07:48:44;;;;;;;4.75;1.88;;;;;;;16.17;48.93;100684.38;4990322;28;20038;-66
2021/03/24 07:51:22;;;;;;;8.75;2.08;;;;;;;16.64;48.98;100679.53;4969325;28;20389;-66
2021/03/24 07:53:58;;;;;;;8.63;2.53;;;;;;;16.53;48.41;100675.19;4988005;28;20046;-66
2021/03/24 07:56:37;;;;;;;5.00;1.60;;;;;;;16.02;49.20;100687.16;4971141;28;20049;-66
2021/03/24 07:59:23;;;;;;;3.10;1.35;;;;;;;15.68;49.45;100690.09;4971040;28;20407;-66
2021/03/24 08:02:13;;;;;;;6.43;1.95;;;;;;;15.25;48.99;100688.50;4988418;28;20043;-66
2021/03/24 08:05:08;;;;;;;3.28;1.20;;;;;;;15.85;48.48;100679.31;4977696;28;20050;-67
2021/03/24 08:07:41;;;;;;;4.50;1.50;;;;;;;16.46;48.04;100686.78;4989052;28;20034;-68
2021/03/24 08:10:23;;;;;;;21.88;9.70;;;;;;;16.33;48.20;100678.03;4995322;28;20093;-66
2021/03/24 08:13:26;;;;;;;10.15;3.60;;;;;;;16.31;47.87;100685.16;4983731;28;20042;-66
2021/03/24 08:16:14;;;;;;;4.65;1.92;;;;;;;16.34;48.16;100666.50;4984092;28;20042;-66
2021/03/24 08:18:52;;;;;;;6.18;1.60;;;;;;;16.78;47.37;100679.38;4985106;28;20145;-67
2021/03/24 08:21:26;;;;;;;9.13;1.52;;;;;;;16.48;47.47;100684.97;4987949;28;20042;-66
2021/03/24 08:24:11;;;;;;;9.90;3.00;;;;;;;16.60;46.38;100683.13;4989977;28;20457;-66
2021/03/24 08:26:45;;;;;;;6.60;2.70;;;;;;;16.73;46.35;100679.44;4988535;28;20058;-66
2021/03/24 08:29:23;;;;;;;6.45;2.13;;;;;;;16.40;45.43;100679.75;4990310;28;20066;-66
2021/03/24 08:32:20;;;;;;;6.15;2.35;;;;;;;16.56;45.14;100689.34;4987924;28;20048;-69
2021/03/24 08:35:17;;;;;;;9.90;2.70;;;;;;;16.46;45.67;100690.34;4986636;28;20137;-68
2021/03/24 08:38:17;;;;;;;6.53;1.88;;;;;;;17.04;45.33;100687.06;4984722;28;20134;-68
2021/03/24 08:41:34;;;;;;;7.88;3.33;;;;;;;16.87;44.76;100687.25;4961474;28;20050;-68
2021/03/24 08:44:11;;;;;;;11.00;3.17;;;;;;;16.84;45.18;100684.63;4972547;28;20050;-68
2021/03/24 08:46:43;;;;;;;9.90;2.35;;;;;;;17.24;45.37;100673.47;4985603;28;20057;-66
2021/03/24 08:49:14;;;;;;;4.97;2.03;;;;;;;17.44;44.15;100666.97;4986677;28;20042;-66
2021/03/24 08:52:02;;;;;;;6.25;1.88;;;;;;;17.72;44.39;100679.97;4989099;28;20751;-69
2021/03/24 08:55:01;;;;;;;5.03;1.90;;;;;;;17.78;43.58;100672.75;4989828;28;20134;-69
2021/03/24 08:57:38;;;;;;;8.85;1.88;;;;;;;17.40;43.91;100672.34;4990399;28;20030;-68
2021/03/24 09:00:15;;;;;;;5.70;1.88;;;;;;;17.17;44.17;100680.69;4991596;28;20134;-68
2021/03/24 09:02:54;;;;;;;8.10;2.65;;;;;;;16.54;43.94;100680.47;4990875;28;20054;-69
2021/03/24 09:05:28;;;;;;;7.25;1.80;;;;;;;16.29;44.88;100684.25;4991589;28;20122;-68
2021/03/24 09:08:09;;;;;;;9.43;1.92;;;;;;;16.29;44.45;100694.94;4991637;28;20061;-68
2021/03/24 09:10:50;;;;;;;8.05;2.13;;;;;;;16.25;44.56;100677.22;4989952;28;20036;-68
2021/03/24 09:13:25;;;;;;;5.82;1.77;;;;;;;16.22;45.04;100685.22;4992712;28;20048;-66
2021/03/24 09:16:32;;;;;;;9.93;3.38;;;;;;;16.39;44.59;100682.41;4989992;28;20039;-69
2021/03/24 09:19:15;;;;;;;5.55;2.60;;;;;;;16.29;45.64;100687.81;4992579;28;20046;-66
2021/03/24 09:21:51;;;;;;;6.70;2.15;;;;;;;16.43;45.43;100695.69;4992020;28;20026;-69
2021/03/24 09:25:00;;;;;;;10.02;4.60;;;;;;;17.00;44.82;100683.53;4993099;28;20672;-69
2021/03/24 09:28:08;;;;;;;5.65;3.03;;;;;;;17.54;44.53;100692.63;4971128;28;20038;-70
2021/03/24 09:31:00;;;;;;;81.75;34.00;;;;;;;18.00;43.84;100697.31;4991546;28;20042;-67
2021/03/24 09:33:51;;;;;;;12.30;7.03;;;;;;;17.24;43.69;100701.06;4993394;28;20034;-68
2021/03/24 09:37:00;;;;;;;7.90;3.20;;;;;;;16.96;44.68;100702.28;4991411;28;20042;-69
2021/03/24 09:39:32;;;;;;;10.98;4.60;;;;;;;17.25;44.79;100705.50;4968471;28;20046;-68
2021/03/24 09:42:04;;;;;;;7.75;3.55;;;;;;;17.36;44.53;100705.34;4992487;28;20034;-69
2021/03/24 09:44:40;;;;;;;7.80;1.92;;;;;;;17.59;43.56;100705.03;4992898;28;20042;-69
2021/03/24 09:47:29;;;;;;;6.82;2.80;;;;;;;17.60;43.09;100712.13;4992803;28;20380;-69
2021/03/24 09:50:08;;;;;;;10.55;2.00;;;;;;;18.17;43.14;100716.66;4992033;28;20101;-69
2021/03/24 09:52:47;;;;;;;8.57;2.70;;;;;;;18.73;42.73;100711.22;4992459;28;20086;-70
2021/03/24 09:55:25;;;;;;;7.97;2.38;;;;;;;18.47;42.55;100717.03;4992385;28;20103;-68
2021/03/24 09:58:25;;;;;;;5.22;2.53;;;;;;;17.99;43.03;100724.03;4991647;28;20085;-68
2021/03/24 10:01:02;;;;;;;11.10;2.97;;;;;;;17.34;44.32;100726.69;4989908;28;20118;-68
2021/03/24 10:03:46;;;;;;;7.18;3.47;;;;;;;16.84;44.84;100737.97;4992895;28;20034;-68
2021/03/24 10:06:23;;;;;;;15.05;5.43;;;;;;;16.40;46.27;100751.69;4992358;28;20045;-68
2021/03/24 10:09:01;;;;;;;20.88;15.35;;;;;;;15.58;49.06;100754.00;4992134;28;20137;-69
2021/03/24 10:11:31;;;;;;;16.33;11.13;;;;;;;15.29;51.00;100747.03;4992283;28;20044;-68
2021/03/24 10:14:08;;;;;;;15.63;5.07;;;;;;;15.44;51.26;100754.91;4991941;28;20066;-69
2021/03/24 10:16:38;;;;;;;7.47;3.38;;;;;;;15.57;51.12;100750.44;4991923;28;20555;-69
2021/03/24 10:19:14;;;;;;;9.68;2.63;;;;;;;15.63;50.40;100739.78;4992463;28;20042;-68
2021/03/24 10:21:47;;;;;;;9.93;2.30;;;;;;;15.47;49.95;100759.34;4991305;28;20034;-68
2021/03/24 10:24:19;;;;;;;9.57;4.20;;;;;;;15.15;50.38;100760.38;4992196;28;20042;-68
2021/03/24 10:26:54;;;;;;;11.93;4.30;;;;;;;14.51;51.99;100777.28;4991833;28;20042;-68
2021/03/24 10:29:25;;;;;;;12.95;5.22;;;;;;;14.11;52.86;100797.59;4992379;28;20062;-68
2021/03/24 10:31:57;;;;;;;9.82;5.15;;;;;;;14.06;53.62;100794.03;4991392;28;20038;-69
2021/03/24 10:34:32;;;;;;;10.15;3.53;;;;;;;13.97;53.34;100800.22;4991983;28;20035;-68
2021/03/24 10:37:09;;;;;;;14.07;4.45;;;;;;;14.43;52.76;100802.97;4991595;28;20050;-68
2021/03/24 10:39:43;;;;;;;13.38;3.80;;;;;;;14.47;52.12;100796.78;4991448;28;20042;-68
2021/03/24 10:42:17;;;;;;;;;;;;;;;14.80;51.53;100801.19;4991945;28;20042;-68
2021/03/24 10:44:52;;;;;;;6.40;4.00;;;;;;;15.03;51.45;100794.09;4990873;28;19921;-68
2021/03/24 10:47:31;;;;;;;7.90;2.90;;;;;;;15.27;51.18;100798.44;4991275;28;20057;-68
2021/03/24 10:50:19;;;;;;;8.70;2.90;;;;;;;15.58;50.57;100796.56;4988933;28;20038;-68
2021/03/24 10:53:07;;;;;;;8.88;3.80;;;;;;;15.54;50.42;100787.75;4989905;28;20038;-68
2021/03/24 10:55:38;;;;;;;13.43;5.47;;;;;;;15.51;50.09;100787.69;4987066;28;20034;-69
2021/03/24 10:58:28;;;;;;;12.90;5.70;;;;;;;15.61;49.21;100794.81;4984645;28;20459;-68
2021/03/24 11:01:07;;;;;;;6.53;3.13;;;;;;;15.64;48.93;100800.09;4987143;28;20042;-68
2021/03/24 11:03:41;;;;;;;5.05;2.10;;;;;;;16.06;49.39;100796.31;4986440;28;20053;-70
2021/03/24 11:06:14;;;;;;;8.13;2.47;;;;;;;16.51;50.70;100803.09;4988117;28;20042;-68
2021/03/24 11:08:46;;;;;;;3.53;1.50;;;;;;;16.38;50.57;100781.88;5002240;28;20117;-69
2021/03/24 11:11:19;;;;;;;9.68;3.65;;;;;;;16.31;51.66;100784.59;4990348;28;20039;-69
2021/03/24 11:13:57;;;;;;;5.30;2.33;;;;;;;16.83;51.00;100777.97;4999067;28;20470;-68
2021/03/24 11:16:28;;;;;;;6.07;2.88;;;;;;;17.21;50.09;100767.78;4990360;28;20041;-68
2021/03/24 11:19:06;;;;;;;8.93;2.60;;;;;;;17.37;48.98;100766.72;4976083;28;20066;-67
2021/03/24 11:21:51;;;;;;;5.90;2.90;;;;;;;17.66;47.77;100763.69;4997240;28;20036;-68
2021/03/24 11:24:27;;;;;;;6.70;2.33;;;;;;;18.18;47.74;100746.94;4994958;28;20103;-68
2021/03/24 11:27:10;;;;;;;8.25;3.10;;;;;;;18.60;45.68;100738.22;5006198;28;20046;-67
2021/03/24 11:29:51;;;;;;;4.45;1.52;;;;;;;18.79;45.54;100748.56;5010202;28;20129;-68
2021/03/24 11:32:29;;;;;;;3.97;2.22;;;;;;;18.88;45.27;100748.41;4996232;28;20549;-67
2021/03/24 11:35:02;;;;;;;5.75;2.63;;;;;;;18.92;45.41;100748.31;4990250;28;20100;-68
2021/03/24 11:37:43;;;;;;;6.57;2.50;;;;;;;18.61;45.30;100755.13;4990801;28;20035;-67
2021/03/24 11:40:24;;;;;;;8.13;2.95;;;;;;;18.16;45.58;100748.72;4990421;28;20034;-67
2021/03/24 11:42:58;;;;;;;8.98;4.07;;;;;;;17.71;46.02;100756.50;4989641;28;20050;-67
2021/03/24 11:45:27;;;;;;;5.85;2.17;;;;;;;17.33;46.24;100742.72;5005182;28;20525;-67
2021/03/24 11:48:20;;;;;;;8.15;2.28;;;;;;;16.80;46.18;100746.03;4985982;28;20142;-67
2021/03/24 11:50:57;;;;;;;9.32;3.78;;;;;;;16.33;47.90;100742.88;4984885;28;20074;-67
2021/03/24 11:53:40;;;;;;;7.68;4.35;;;;;;;16.20;48.80;100743.84;5003059;28;20129;-67
2021/03/24 11:56:18;;;;;;;7.35;2.83;;;;;;;15.80;50.08;100747.69;4989402;28;20038;-67
2021/03/24 11:58:50;;;;;;;7.13;3.13;;;;;;;15.17;52.52;100760.34;4989485;28;20085;-68
2021/03/24 12:01:46;;;;;;;8.18;3.85;;;;;;;14.73;54.26;100773.72;4986876;28;20034;-67
2021/03/24 12:04:33;;;;;;;18.13;8.25;;;;;;;14.44;55.97;100783.50;4984033;28;20069;-67
2021/03/24 12:07:12;;;;;;;13.02;4.78;;;;;;;14.04;57.22;100787.84;4990409;28;20066;-68
2021/03/24 12:09:41;;;;;;;14.18;6.40;;;;;;;13.61;59.07;100797.44;4989672;28;20038;-67